Time;durP1;ratioP1;P1;durP2;ratioP2;P2;SDS_P1;SDS_P2;PMS_P1;PMS_P2;Temp;Humidity;BMP_temperature;BMP_pressure;BME280_temperature;BME280_humidity;BME280_pressure;Samples;Min_cycle;Max_cycle;Signal;HPM_P1;HPM_P2
2022/01/06 00:01:38;;;;;;;17.42;0.20;;;3.40;99.90;;;;;;6340002;22;20071;-76
2022/01/06 00:04:04;;;;;;;14.48;1.02;;;3.40;99.90;;;;;;6312022;22;20003;-76
2022/01/06 00:06:30;;;;;;;14.55;0.57;;;3.30;99.90;;;;;;6311986;22;20003;-76
2022/01/06 00:08:57;;;;;;;10.20;0.30;;;3.20;99.90;;;;;;6339740;22;20009;-76
2022/01/06 00:11:24;;;;;;;17.17;0.40;;;3.10;99.90;;;;;;6311888;22;20571;-76
2022/01/06 00:14:03;;;;;;;8.85;0.95;;;3.10;99.90;;;;;;6339494;22;19999;-76
2022/01/06 00:16:38;;;;;;;10.25;0.30;;;3.10;99.90;;;;;;6312107;22;20319;-76
2022/01/06 00:24:19;;;;;;;7.47;0.20;;;3.10;99.90;;;;;;6340370;22;20017;-76
2022/01/06 00:26:45;;;;;;;12.20;0.60;;;3.00;99.90;;;;;;6339560;22;20085;-76
2022/01/06 00:29:11;;;;;;;17.30;0.90;;;3.00;99.90;;;;;;6339275;22;20011;-76
2022/01/06 00:31:37;;;;;;;9.45;0.60;;;3.00;99.90;;;;;;6339941;22;20002;-79
2022/01/06 00:34:05;;;;;;;12.93;0.75;;;2.90;99.90;;;;;;6339914;22;20018;-78
2022/01/06 00:36:30;;;;;;;7.97;0.20;;;2.90;99.90;;;;;;6339531;22;20074;-78
2022/01/06 00:38:56;;;;;;;10.38;0.30;;;2.80;99.90;;;;;;6312350;22;20022;-78
2022/01/06 00:41:22;;;;;;;7.50;0.20;;;2.80;99.90;;;;;;6311847;22;20002;-78
2022/01/06 00:43:48;;;;;;;6.13;0.20;;;2.80;99.90;;;;;;6311748;22;20334;-78
2022/01/06 00:46:13;;;;;;;3.10;0.25;;;2.70;99.90;;;;;;6340229;22;19998;-79
2022/01/06 00:48:39;;;;;;;9.95;0.10;;;2.70;99.90;;;;;;6312027;22;20003;-79
2022/01/06 00:51:05;;;;;;;8.25;0.60;;;2.70;99.90;;;;;;6311942;22;19999;-79
2022/01/06 00:53:30;;;;;;;9.48;0.30;;;2.70;99.90;;;;;;6340045;22;20078;-79
2022/01/06 00:55:56;;;;;;;4.50;0.00;;;2.60;99.90;;;;;;6340220;22;20021;-79
2022/01/06 00:58:21;;;;;;;5.53;0.10;;;2.60;99.90;;;;;;6312177;22;20049;-79
2022/01/06 01:00:47;;;;;;;7.03;0.82;;;2.60;99.90;;;;;;6312297;22;19999;-79
2022/01/06 01:03:23;;;;;;;6.70;0.52;;;2.50;99.90;;;;;;6340169;22;20006;-79
2022/01/06 01:05:51;;;;;;;6.97;0.68;;;2.60;99.90;;;;;;6340253;22;20007;-79
2022/01/06 01:08:17;;;;;;;6.95;0.30;;;2.50;99.90;;;;;;6311924;22;20073;-79
2022/01/06 01:10:44;;;;;;;7.15;0.03;;;2.50;99.90;;;;;;6339997;22;20003;-79
2022/01/06 01:13:12;;;;;;;3.55;0.10;;;2.40;99.90;;;;;;6340260;22;20007;-79
2022/01/06 01:15:53;;;;;;;5.47;0.37;;;2.30;99.90;;;;;;6340122;22;20003;-79
2022/01/06 01:18:20;;;;;;;4.50;0.10;;;2.30;99.90;;;;;;6340106;22;20077;-78
2022/01/06 01:20:47;;;;;;;6.65;0.20;;;2.30;99.90;;;;;;6340355;22;19999;-80
2022/01/06 01:23:13;;;;;;;7.25;0.57;;;2.20;99.90;;;;;;6340361;22;20002;-79
2022/01/06 01:25:39;;;;;;;7.85;0.80;;;2.20;99.90;;;;;;6315333;22;19995;-79
2022/01/06 01:28:05;;;;;;;8.68;0.10;;;2.20;99.90;;;;;;6339247;22;20056;-78
2022/01/06 01:30:39;;;;;;;4.05;0.10;;;2.10;99.90;;;;;;6339207;22;20422;-78
2022/01/06 01:33:15;;;;;;;6.90;0.80;;;2.10;99.90;;;;;;6339197;22;19995;-78
2022/01/06 01:35:41;;;;;;;12.25;0.57;;;2.10;99.90;;;;;;6340182;22;19999;-78
2022/01/06 01:38:07;;;;;;;9.95;0.00;;;2.00;99.90;;;;;;6312116;22;19999;-78
2022/01/06 01:40:33;;;;;;;4.18;0.10;;;1.90;99.90;;;;;;6339850;22;20006;-78
2022/01/06 01:42:58;;;;;;;5.18;0.00;;;2.00;99.90;;;;;;6339838;22;20009;-78
2022/01/06 01:45:29;;;;;;;5.88;0.50;;;2.00;99.90;;;;;;6311248;22;20073;-78
2022/01/06 01:47:57;;;;;;;7.63;0.40;;;1.90;99.90;;;;;;6339864;22;19999;-78
2022/01/06 01:50:22;;;;;;;12.35;0.80;;;1.90;99.90;;;;;;6339040;22;19999;-78
2022/01/06 01:52:51;;;;;;;5.03;1.00;;;2.00;99.90;;;;;;6338987;22;20052;-78
2022/01/06 01:55:21;;;;;;;14.38;0.95;;;2.00;99.90;;;;;;6339029;22;19999;-78
2022/01/06 01:57:48;;;;;;;3.97;0.28;;;2.00;99.90;;;;;;6311950;22;20136;-78
2022/01/06 02:00:15;;;;;;;5.13;0.43;;;2.10;99.90;;;;;;6339098;22;19995;-78
2022/01/06 02:02:42;;;;;;;11.90;0.35;;;2.10;99.90;;;;;;6339060;22;20468;-78
2022/01/06 02:05:08;;;;;;;12.88;0.63;;;2.20;99.90;;;;;;6339669;22;20491;-78
2022/01/06 02:07:35;;;;;;;8.30;0.73;;;2.30;99.90;;;;;;6311699;22;20010;-78
2022/01/06 02:10:03;;;;;;;5.53;0.40;;;2.40;99.90;;;;;;6339459;22;20052;-78
2022/01/06 02:12:32;;;;;;;8.98;0.00;;;2.50;99.90;;;;;;6339153;22;20007;-78
2022/01/06 02:14:58;;;;;;;8.40;0.32;;;2.50;99.90;;;;;;6339780;22;19999;-78
2022/01/06 02:17:24;;;;;;;7.22;0.32;;;2.60;99.90;;;;;;6340850;22;19999;-78
2022/01/06 02:19:55;;;;;;;7.85;0.10;;;2.60;99.90;;;;;;6313771;22;20082;-78
2022/01/06 02:22:21;;;;;;;3.28;0.10;;;2.60;99.90;;;;;;6313137;22;20003;-78
2022/01/06 02:24:46;;;;;;;8.60;0.32;;;2.60;99.90;;;;;;6341452;22;20069;-78
2022/01/06 02:27:12;;;;;;;7.95;0.55;;;2.60;99.90;;;;;;6341121;22;20003;-78
2022/01/06 02:29:38;;;;;;;7.47;0.88;;;2.60;99.90;;;;;;6340603;22;20064;-78
2022/01/06 02:32:08;;;;;;;5.28;0.10;;;2.60;99.90;;;;;;6340860;22;20003;-78
2022/01/06 02:34:34;;;;;;;9.13;0.20;;;2.60;99.90;;;;;;6340601;22;19999;-78
2022/01/06 02:37:01;;;;;;;6.00;0.10;;;2.60;99.90;;;;;;6341302;22;20021;-78
2022/01/06 02:39:27;;;;;;;14.43;0.47;;;2.60;99.90;;;;;;6313497;22;20003;-78
2022/01/06 02:41:52;;;;;;;7.40;0.90;;;2.50;99.90;;;;;;6340513;22;20021;-78
2022/01/06 02:44:21;;;;;;;6.78;0.20;;;2.50;99.90;;;;;;6340459;22;20007;-78
2022/01/06 02:46:47;;;;;;;16.48;0.38;;;2.40;99.90;;;;;;6341597;22;20007;-78
2022/01/06 02:49:12;;;;;;;5.88;0.03;;;2.40;99.90;;;;;;6313065;22;20319;-78
2022/01/06 02:51:40;;;;;;;7.43;0.10;;;2.40;99.90;;;;;;6341293;22;20056;-78
2022/01/06 02:54:06;;;;;;;6.40;0.00;;;2.30;99.90;;;;;;6340255;22;20434;-78
2022/01/06 02:56:32;;;;;;;6.07;0.28;;;2.20;99.90;;;;;;6340581;22;20002;-78
2022/01/06 02:58:59;;;;;;;4.97;0.00;;;2.20;99.90;;;;;;6340813;22;20006;-77
2022/01/06 03:01:25;;;;;;;6.35;0.15;;;2.20;99.90;;;;;;6313113;22;20044;-78
2022/01/06 03:03:50;;;;;;;10.82;0.15;;;2.20;99.90;;;;;;6340292;22;20034;-78
2022/01/06 03:06:16;;;;;;;4.75;0.65;;;2.10;99.90;;;;;;6312650;22;19998;-77
2022/01/06 03:08:42;;;;;;;6.55;0.00;;;2.10;99.90;;;;;;6340473;22;20086;-77
2022/01/06 03:11:07;;;;;;;7.80;0.57;;;2.00;99.90;;;;;;6340294;22;19999;-77
2022/01/06 03:13:33;;;;;;;6.38;0.55;;;2.00;99.90;;;;;;6312568;22;20002;-77
2022/01/06 03:16:01;;;;;;;10.43;0.17;;;2.00;99.90;;;;;;6340307;22;19999;-77
2022/01/06 03:18:27;;;;;;;12.23;0.10;;;1.90;99.90;;;;;;6312550;22;19995;-77
2022/01/06 03:20:52;;;;;;;6.53;0.03;;;1.90;99.90;;;;;;6312788;22;19999;-78
2022/01/06 03:23:18;;;;;;;9.43;1.02;;;1.90;99.90;;;;;;6340269;22;20003;-78
2022/01/06 03:25:44;;;;;;;7.53;0.52;;;1.80;99.90;;;;;;6340072;22;20070;-78
2022/01/06 03:28:10;;;;;;;3.80;0.38;;;4.00;99.90;;;;;;6312156;22;20017;-78
2022/01/06 03:30:38;;;;;;;5.00;0.08;;;1.80;99.90;;;;;;6312840;22;20003;-78
2022/01/06 03:33:04;;;;;;;6.03;0.00;;;1.60;99.90;;;;;;6312728;22;20048;-79
2022/01/06 03:35:30;;;;;;;10.20;0.00;;;1.70;99.90;;;;;;6340351;22;20003;-79
2022/01/06 03:37:56;;;;;;;7.63;0.82;;;1.70;99.90;;;;;;6340157;22;19995;-79
2022/01/06 03:40:21;;;;;;;8.10;0.28;;;1.70;99.90;;;;;;6340485;22;20006;-78
2022/01/06 03:42:48;;;;;;;9.65;0.40;;;1.70;99.90;;;;;;6340229;22;20049;-78
2022/01/06 03:45:16;;;;;;;5.30;0.20;;;1.60;99.90;;;;;;6340057;22;19999;-78
2022/01/06 03:47:42;;;;;;;11.45;0.30;;;1.60;99.90;;;;;;6340505;22;20006;-78
2022/01/06 03:50:10;;;;;;;7.40;0.32;;;1.60;99.90;;;;;;6339890;22;20003;-78
2022/01/06 03:52:36;;;;;;;5.38;0.15;;;1.60;99.90;;;;;;6339984;22;20025;-78
2022/01/06 03:55:03;;;;;;;5.85;0.85;;;1.60;99.90;;;;;;6340100;22;20010;-78
2022/01/06 03:57:29;;;;;;;5.68;0.43;;;1.50;99.90;;;;;;6340266;22;20034;-78
2022/01/06 03:59:54;;;;;;;5.88;0.10;;;1.50;99.90;;;;;;6340042;22;19995;-78
2022/01/06 04:02:21;;;;;;;9.32;0.32;;;1.40;99.90;;;;;;6312336;22;19999;-78
2022/01/06 04:04:46;;;;;;;7.82;0.15;;;1.40;99.90;;;;;;6339910;22;19999;-78
2022/01/06 04:07:12;;;;;;;8.45;0.80;;;1.40;99.90;;;;;;6312266;22;20007;-78
2022/01/06 04:09:37;;;;;;;9.25;0.05;;;1.50;99.90;;;;;;6339515;22;20013;-78
2022/01/06 04:12:03;;;;;;;5.75;0.77;;;1.50;99.90;;;;;;6312192;22;20006;-78
2022/01/06 04:14:29;;;;;;;9.75;0.25;;;1.40;99.90;;;;;;6312051;22;20408;-78
2022/01/06 04:16:59;;;;;;;5.68;0.50;;;1.40;99.90;;;;;;6312122;22;19999;-78
2022/01/06 04:19:25;;;;;;;11.02;0.30;;;1.40;99.90;;;;;;6340478;22;20449;-78
2022/01/06 04:21:51;;;;;;;5.85;0.10;;;1.40;99.90;;;;;;6339726;22;20070;-78
2022/01/06 04:24:16;;;;;;;8.45;0.10;;;1.40;99.90;;;;;;6339688;22;20449;-78
2022/01/06 04:26:43;;;;;;;7.32;0.13;;;1.40;99.90;;;;;;6312096;22;20003;-78
2022/01/06 04:29:08;;;;;;;5.72;0.00;;;1.40;99.90;;;;;;6339465;22;20037;-78
2022/01/06 04:31:34;;;;;;;8.05;0.20;;;1.40;99.90;;;;;;6312117;22;20003;-78
2022/01/06 04:34:00;;;;;;;12.27;0.10;;;1.30;99.90;;;;;;6339386;22;20086;-78
2022/01/06 04:36:25;;;;;;;5.45;0.17;;;1.30;99.90;;;;;;6311994;22;20369;-78
2022/01/06 04:38:51;;;;;;;10.75;0.28;;;1.30;99.90;;;;;;6339872;22;20003;-78
2022/01/06 04:41:16;;;;;;;10.55;1.60;;;1.30;99.90;;;;;;6339414;22;20422;-78
2022/01/06 04:43:42;;;;;;;5.97;0.52;;;1.20;99.90;;;;;;6339916;22;19999;-78
2022/01/06 04:46:07;;;;;;;5.35;0.00;;;1.20;99.90;;;;;;6339708;22;20079;-78
2022/01/06 04:48:35;;;;;;;12.43;0.80;;;1.20;99.90;;;;;;6339390;22;20002;-78
2022/01/06 04:51:01;;;;;;;13.98;0.45;;;1.20;99.90;;;;;;6312014;22;20344;-78
2022/01/06 04:53:26;;;;;;;8.85;0.52;;;1.20;99.90;;;;;;6312069;22;20006;-78
2022/01/06 04:55:54;;;;;;;6.63;0.30;;;1.20;99.90;;;;;;6340373;22;19999;-78
2022/01/06 04:58:19;;;;;;;6.30;0.10;;;1.20;99.90;;;;;;6311906;22;19999;-78
2022/01/06 05:00:45;;;;;;;6.18;0.10;;;1.10;99.90;;;;;;6339454;22;19999;-78
2022/01/06 05:03:11;;;;;;;8.88;0.63;;;1.20;99.90;;;;;;6311880;22;20002;-78
2022/01/06 05:05:36;;;;;;;9.35;0.05;;;1.10;99.90;;;;;;6340088;22;20002;-78
2022/01/06 05:08:02;;;;;;;5.60;0.20;;;1.10;99.90;;;;;;6339835;22;20049;-78
2022/01/06 05:10:27;;;;;;;10.10;1.15;;;1.20;99.90;;;;;;6339706;22;20002;-78
2022/01/06 05:12:53;;;;;;;5.95;0.35;;;1.10;99.90;;;;;;6340237;22;20006;-79
2022/01/06 05:15:18;;;;;;;11.68;0.50;;;1.10;99.90;;;;;;6312339;22;20033;-79
2022/01/06 05:17:44;;;;;;;5.78;0.15;;;1.10;99.90;;;;;;6339807;22;20437;-79
2022/01/06 05:20:10;;;;;;;6.63;0.47;;;1.10;99.90;;;;;;6339949;22;20003;-78
2022/01/06 05:22:42;;;;;;;3.20;0.00;;;1.10;99.90;;;;;;6312112;22;20030;-78
2022/01/06 05:25:08;;;;;;;14.65;0.40;;;1.10;99.90;;;;;;6311587;22;20481;-78
2022/01/06 05:27:34;;;;;;;5.35;0.57;;;1.10;99.90;;;;;;6339339;22;20003;-78
2022/01/06 05:29:59;;;;;;;6.47;0.20;;;1.10;99.90;;;;;;6311220;22;20006;-78
2022/01/06 05:32:25;;;;;;;5.90;0.50;;;1.10;99.90;;;;;;6311422;22;20009;-78
2022/01/06 05:34:50;;;;;;;4.68;0.15;;;1.10;99.90;;;;;;6311321;22;20002;-78
2022/01/06 05:37:16;;;;;;;4.88;0.60;;;1.10;99.90;;;;;;6339176;22;20018;-78
2022/01/06 05:39:42;;;;;;;10.75;0.52;;;-0.40;99.90;;;;;;6311811;22;20383;-78
2022/01/06 05:42:08;;;;;;;4.28;0.22;;;1.10;99.90;;;;;;6339446;22;20078;-78
2022/01/06 05:44:34;;;;;;;5.25;0.10;;;1.10;99.90;;;;;;6311616;22;20385;-78
2022/01/06 05:47:00;;;;;;;10.30;0.73;;;1.10;99.90;;;;;;6339379;22;20330;-78
2022/01/06 05:49:26;;;;;;;3.35;0.00;;;1.00;99.90;;;;;;6312101;22;19999;-78
2022/01/06 05:51:51;;;;;;;9.38;0.22;;;1.00;99.90;;;;;;6341318;22;20426;-78
2022/01/06 05:54:17;;;;;;;11.15;0.38;;;1.00;99.90;;;;;;6341219;22;20078;-78
2022/01/06 05:56:42;;;;;;;9.75;0.10;;;1.00;99.90;;;;;;6341028;22;19999;-78
2022/01/06 05:59:08;;;;;;;5.18;0.00;;;1.00;99.90;;;;;;6313723;22;20009;-78
2022/01/06 06:01:34;;;;;;;8.13;0.35;;;1.00;99.90;;;;;;6341674;22;20002;-78
2022/01/06 06:03:59;;;;;;;6.80;0.38;;;0.90;99.90;;;;;;6341231;22;20116;-78
2022/01/06 06:06:25;;;;;;;6.18;0.10;;;0.90;99.90;;;;;;6313417;22;20007;-78
2022/01/06 06:08:50;;;;;;;13.07;0.15;;;0.90;99.90;;;;;;6340803;22;20081;-78
2022/01/06 06:11:16;;;;;;;7.35;0.98;;;0.90;99.90;;;;;;6341223;22;19999;-78
2022/01/06 06:13:41;;;;;;;6.28;0.30;;;0.90;99.90;;;;;;6313560;22;20007;-78
2022/01/06 06:16:07;;;;;;;8.00;0.35;;;0.90;99.90;;;;;;6313485;22;20308;-78
2022/01/06 06:18:33;;;;;;;10.45;0.45;;;0.90;99.90;;;;;;6341039;22;20045;-78
2022/01/06 06:20:58;;;;;;;10.38;0.10;;;0.90;99.90;;;;;;6341470;22;20074;-77
2022/01/06 06:23:24;;;;;;;4.70;0.10;;;0.80;99.90;;;;;;6313384;22;20338;-77
2022/01/06 06:25:49;;;;;;;8.25;0.70;;;0.80;99.90;;;;;;6340731;22;19998;-77
2022/01/06 06:28:15;;;;;;;5.40;0.73;;;0.80;99.90;;;;;;6340714;22;20438;-77
2022/01/06 06:30:40;;;;;;;5.28;0.00;;;0.70;99.90;;;;;;6341422;22;20007;-77
2022/01/06 06:33:06;;;;;;;10.02;0.45;;;0.70;99.90;;;;;;6341929;22;19998;-77
2022/01/06 06:35:31;;;;;;;5.53;0.03;;;0.70;99.90;;;;;;6340602;22;19999;-77
2022/01/06 06:37:57;;;;;;;4.80;0.10;;;0.70;99.90;;;;;;6341125;22;20062;-73
2022/01/06 06:40:23;;;;;;;8.27;0.63;;;0.70;99.90;;;;;;6341064;22;19994;-73
2022/01/06 06:42:50;;;;;;;6.35;0.70;;;0.70;99.90;;;;;;6341302;22;20056;-73
2022/01/06 06:45:16;;;;;;;5.15;1.10;;;0.60;99.90;;;;;;6341656;22;20002;-73
2022/01/06 06:47:42;;;;;;;9.23;0.63;;;0.60;99.90;;;;;;6341227;22;20074;-73
2022/01/06 06:50:08;;;;;;;8.23;0.43;;;0.60;99.90;;;;;;6341033;22;20007;-73
2022/01/06 06:52:33;;;;;;;12.32;0.10;;;0.60;99.90;;;;;;6340814;22;20005;-73
2022/01/06 06:54:59;;;;;;;3.83;0.50;;;0.70;99.90;;;;;;6313723;22;20456;-74
2022/01/06 06:57:25;;;;;;;5.32;0.10;;;0.70;99.90;;;;;;6313640;22;19999;-74
2022/01/06 06:59:50;;;;;;;4.43;0.03;;;0.70;99.90;;;;;;6341823;22;20044;-73
2022/01/06 07:02:16;;;;;;;13.35;0.20;;;0.60;99.90;;;;;;6313908;22;19999;-73
2022/01/06 07:04:41;;;;;;;10.45;0.55;;;0.60;99.90;;;;;;6340710;22;20079;-73
2022/01/06 07:07:07;;;;;;;2.65;0.45;;;0.70;99.90;;;;;;6340480;22;20453;-73
2022/01/06 07:09:32;;;;;;;7.75;0.10;;;0.70;99.90;;;;;;6312760;22;20077;-73
2022/01/06 07:11:58;;;;;;;11.90;0.10;;;0.70;99.90;;;;;;6313360;22;20059;-74
2022/01/06 07:14:24;;;;;;;5.43;0.30;;;0.60;99.90;;;;;;6340734;22;20003;-73
2022/01/06 07:16:49;;;;;;;7.55;0.65;;;0.70;99.90;;;;;;6313394;22;20494;-76
2022/01/06 07:19:15;;;;;;;12.30;0.25;;;0.60;99.90;;;;;;6313265;22;20434;-73
2022/01/06 07:21:41;;;;;;;2.33;0.10;;;0.70;99.90;;;;;;6341870;22;20003;-73
2022/01/06 07:24:06;;;;;;;2.15;0.20;;;0.80;99.90;;;;;;6313796;22;20006;-73
2022/01/06 07:26:32;;;;;;;5.60;0.28;;;0.80;99.90;;;;;;6341104;22;20003;-75
2022/01/06 07:28:58;;;;;;;4.82;0.63;;;0.80;99.90;;;;;;6340745;22;20006;-73
2022/01/06 07:31:23;;;;;;;8.90;0.35;;;0.80;99.90;;;;;;6312894;22;20007;-73
2022/01/06 07:33:49;;;;;;;6.28;0.65;;;0.90;99.90;;;;;;6340629;22;20002;-73
2022/01/06 07:36:15;;;;;;;8.40;0.00;;;0.90;99.90;;;;;;6341067;22;20087;-72
2022/01/06 07:38:40;;;;;;;8.88;0.13;;;1.00;99.90;;;;;;6313883;22;20003;-72
2022/01/06 07:41:06;;;;;;;2.30;0.00;;;1.20;99.90;;;;;;6341970;22;19999;-72
2022/01/06 07:43:31;;;;;;;7.68;0.20;;;1.40;99.90;;;;;;6342052;22;20422;-72
2022/01/06 07:45:57;;;;;;;4.43;0.10;;;1.60;99.90;;;;;;6342184;22;20007;-72
2022/01/06 07:48:30;;;;;;;3.42;0.08;;;1.90;99.90;;;;;;6341679;22;20033;-73
2022/01/06 07:50:56;;;;;;;2.72;0.00;;;2.00;99.90;;;;;;6314048;22;19999;-73
2022/01/06 07:53:21;;;;;;;4.55;0.00;;;2.10;99.90;;;;;;6341259;22;19998;-73
2022/01/06 07:55:47;;;;;;;2.78;0.03;;;2.20;99.90;;;;;;6341722;22;20043;-72
2022/01/06 07:58:12;;;;;;;17.52;0.85;;;2.20;99.90;;;;;;6341119;22;19995;-73
2022/01/06 08:00:38;;;;;;;9.93;0.43;;;2.40;99.90;;;;;;6340804;22;20014;-73
2022/01/06 08:03:04;;;;;;;4.60;0.28;;;2.40;99.90;;;;;;6341017;22;20027;-73
2022/01/06 08:05:29;;;;;;;3.90;0.25;;;2.50;99.90;;;;;;6312980;22;20009;-73
2022/01/06 08:07:55;;;;;;;3.13;0.10;;;2.60;99.90;;;;;;6313539;22;20002;-73
2022/01/06 08:10:22;;;;;;;4.47;0.00;;;2.70;99.90;;;;;;6313252;22;20006;-73
2022/01/06 08:12:47;;;;;;;2.17;0.13;;;2.80;99.90;;;;;;6313209;22;19999;-73
2022/01/06 08:15:16;;;;;;;6.45;0.55;;;2.80;99.90;;;;;;6341590;22;20074;-73
2022/01/06 08:17:42;;;;;;;5.10;0.20;;;2.80;99.90;;;;;;6339738;22;19999;-73
2022/01/06 08:20:09;;;;;;;7.43;0.32;;;2.80;99.90;;;;;;6340756;22;20367;-73
2022/01/06 08:22:35;;;;;;;5.68;0.38;;;2.90;99.90;;;;;;6340161;22;19999;-73
2022/01/06 08:25:02;;;;;;;1.08;0.10;;;2.90;99.90;;;;;;6340607;22;20055;-73
2022/01/06 08:27:28;;;;;;;2.72;0.00;;;2.90;99.90;;;;;;6340656;22;20002;-73
2022/01/06 08:29:53;;;;;;;2.35;0.10;;;2.90;99.90;;;;;;6340671;22;20010;-73
2022/01/06 08:32:20;;;;;;;1.80;0.17;;;2.90;99.90;;;;;;6340838;22;20426;-73
2022/01/06 08:34:45;;;;;;;8.43;0.35;;;2.90;99.90;;;;;;6340213;22;20033;-73
2022/01/06 08:37:11;;;;;;;7.20;0.50;;;2.90;99.90;;;;;;6313478;22;20376;-73
2022/01/06 08:39:36;;;;;;;3.35;0.00;;;2.90;99.90;;;;;;6342111;22;19995;-73
2022/01/06 08:42:03;;;;;;;0.60;0.00;;;2.90;99.90;;;;;;6341397;22;20410;-73
2022/01/06 08:44:28;;;;;;;7.35;0.05;;;2.90;99.90;;;;;;6312512;22;20026;-73
2022/01/06 08:46:55;;;;;;;1.50;0.30;;;2.90;99.90;;;;;;6340736;22;20006;-73
2022/01/06 08:49:21;;;;;;;5.88;0.35;;;2.90;99.90;;;;;;6340422;22;20003;-73
2022/01/06 08:51:47;;;;;;;6.22;0.00;;;2.90;99.90;;;;;;6341464;22;20354;-73
2022/01/06 08:54:13;;;;;;;7.22;0.20;;;2.90;99.90;;;;;;6313167;22;20434;-73
2022/01/06 08:56:39;;;;;;;4.32;0.35;;;2.90;99.90;;;;;;6341312;22;20431;-73
2022/01/06 08:59:05;;;;;;;6.57;0.50;;;3.00;99.90;;;;;;6340804;22;20051;-73
2022/01/06 09:01:31;;;;;;;6.30;0.20;;;3.00;99.90;;;;;;6340954;22;20002;-73
2022/01/06 09:03:57;;;;;;;7.30;0.28;;;3.00;99.90;;;;;;6341400;22;20010;-73
2022/01/06 09:06:23;;;;;;;4.85;0.30;;;3.10;99.90;;;;;;6341139;22;20299;-73
2022/01/06 09:08:49;;;;;;;5.07;0.20;;;3.20;99.90;;;;;;6340763;22;20446;-73
2022/01/06 09:11:15;;;;;;;6.18;0.20;;;3.20;99.90;;;;;;6341176;22;20380;-73
2022/01/06 09:13:41;;;;;;;7.93;0.38;;;3.30;99.90;;;;;;6313080;22;20010;-73
2022/01/06 09:16:08;;;;;;;4.40;0.75;;;3.30;99.90;;;;;;6341150;22;20068;-73
2022/01/06 09:18:35;;;;;;;8.50;0.80;;;3.40;99.90;;;;;;6312967;22;20002;-73
2022/01/06 09:21:01;;;;;;;7.75;0.30;;;3.40;99.90;;;;;;6312672;22;20448;-73
2022/01/06 09:23:26;;;;;;;6.00;0.75;;;3.50;99.90;;;;;;6340472;22;20070;-73
2022/01/06 09:25:52;;;;;;;10.07;0.93;;;3.50;99.90;;;;;;6340564;22;19995;-73
2022/01/06 09:28:17;;;;;;;2.53;0.10;;;3.70;99.90;;;;;;6340452;22;20057;-73
2022/01/06 09:30:43;;;;;;;9.88;0.98;;;3.80;99.90;;;;;;6340549;22;20438;-73
2022/01/06 09:33:08;;;;;;;7.82;0.20;;;3.80;99.90;;;;;;6340862;22;20448;-73
2022/01/06 09:35:34;;;;;;;8.98;0.60;;;3.90;99.90;;;;;;6339493;22;20002;-73
2022/01/06 09:38:00;;;;;;;5.53;0.43;;;3.90;99.90;;;;;;6340104;22;19995;-73
2022/01/06 09:40:26;;;;;;;5.65;0.32;;;4.00;99.90;;;;;;6340204;22;20026;-73
2022/01/06 09:42:54;;;;;;;16.55;1.10;;;4.00;99.90;;;;;;6312332;22;20076;-73
2022/01/06 09:45:23;;;;;;;5.10;0.00;;;4.10;99.90;;;;;;6312375;22;20136;-73
2022/01/06 09:47:49;;;;;;;;;;;4.20;99.90;;;;;;6312510;22;20503;-73
2022/01/06 09:50:14;;;;;;;5.25;0.20;;;4.20;99.90;;;;;;6339028;22;19899;-73
2022/01/06 09:52:41;;;;;;;8.00;0.38;;;4.30;99.90;;;;;;6339123;22;20332;-73
2022/01/06 09:55:07;;;;;;;13.68;0.55;;;4.40;99.90;;;;;;6311742;22;20089;-73
2022/01/06 09:57:33;;;;;;;4.30;0.47;;;4.40;99.90;;;;;;6338926;22;20430;-73
2022/01/06 09:59:59;;;;;;;8.35;0.38;;;4.50;99.90;;;;;;6311321;22;20009;-72
2022/01/06 10:02:35;;;;;;;4.47;0.20;;;4.50;99.90;;;;;;6339044;22;20002;-74
2022/01/06 10:05:03;;;;;;;9.27;0.70;;;4.60;99.90;;;;;;6311353;22;20003;-73
2022/01/06 10:07:38;;;;;;;12.18;0.85;;;4.70;99.90;;;;;;6311724;22;20007;-74
2022/01/06 10:10:10;;;;;;;2.95;0.40;;;4.80;99.90;;;;;;6339499;22;20052;-74
2022/01/06 10:12:38;;;;;;;6.22;0.00;;;4.90;99.90;;;;;;6339640;22;20002;-73
2022/01/06 10:15:16;;;;;;;4.53;0.38;;;4.90;99.90;;;;;;6340291;22;19999;-73
2022/01/06 10:17:41;;;;;;;4.35;0.25;;;5.00;99.90;;;;;;6340022;22;19995;-73
2022/01/06 10:20:22;;;;;;;4.55;0.57;;;5.00;99.90;;;;;;6339724;22;20006;-73
2022/01/06 10:22:52;;;;;;;5.57;0.00;;;5.10;99.90;;;;;;6339937;22;20382;-73
2022/01/06 10:25:20;;;;;;;2.90;0.00;;;5.10;99.90;;;;;;6340739;22;20002;-73
2022/01/06 10:27:46;;;;;;;3.33;0.30;;;5.10;99.90;;;;;;6311548;22;20315;-73
2022/01/06 10:30:13;;;;;;;9.82;0.25;;;5.20;99.90;;;;;;6340067;22;20006;-72
2022/01/06 10:32:42;;;;;;;5.93;0.40;;;5.20;99.90;;;;;;6339710;22;20125;-72
2022/01/06 10:35:09;;;;;;;5.20;0.77;;;5.30;99.90;;;;;;6340250;22;20003;-72
2022/01/06 10:37:44;;;;;;;4.40;0.20;;;5.40;99.90;;;;;;6313645;22;20005;-72
2022/01/06 10:40:13;;;;;;;3.92;0.10;;;5.40;99.90;;;;;;6313246;22;20076;-73
2022/01/06 10:42:41;;;;;;;5.13;0.10;;;5.30;99.90;;;;;;6340972;22;20005;-73
2022/01/06 10:45:13;;;;;;;4.45;0.80;;;5.30;99.90;;;;;;6341058;22;19998;-72
2022/01/06 10:47:48;;;;;;;5.07;0.47;;;5.40;99.90;;;;;;6341393;22;20010;-74
2022/01/06 10:50:46;;;;;;;5.43;0.10;;;5.50;99.90;;;;;;6340496;22;20086;-75
2022/01/06 10:53:12;;;;;;;5.38;1.15;;;5.60;99.90;;;;;;6271828;22;20063;-74
2022/01/06 10:55:40;;;;;;;3.97;1.20;;;5.70;99.90;;;;;;6340323;22;20383;-74
2022/01/06 10:58:07;;;;;;;5.85;0.30;;;5.80;99.90;;;;;;6340991;22;20426;-74
2022/01/06 11:00:41;;;;;;;10.50;0.50;;;5.80;99.90;;;;;;6313138;22;20025;-74
2022/01/06 11:03:11;;;;;;;6.75;0.40;;;5.90;99.90;;;;;;6340478;22;20337;-74
2022/01/06 11:05:39;;;;;;;6.30;0.70;;;6.00;99.90;;;;;;6340586;22;20030;-75
2022/01/06 11:08:06;;;;;;;5.07;0.30;;;6.00;99.90;;;;;;6312816;22;20382;-74
2022/01/06 11:10:36;;;;;;;6.30;0.20;;;6.00;99.90;;;;;;6312819;22;20221;-74
2022/01/06 11:13:03;;;;;;;7.85;0.50;;;6.10;99.90;;;;;;6313732;22;19999;-74
2022/01/06 11:15:29;;;;;;;15.85;0.43;;;6.10;99.90;;;;;;6312901;22;20457;-74
2022/01/06 11:17:55;;;;;;;8.07;0.30;;;6.00;99.90;;;;;;6312568;22;20010;-75
2022/01/06 11:20:28;;;;;;;4.93;0.28;;;5.90;99.90;;;;;;6340040;22;19998;-74
2022/01/06 11:22:56;;;;;;;3.70;0.47;;;5.90;99.90;;;;;;6312453;22;20085;-75
2022/01/06 11:25:39;;;;;;;9.00;0.22;;;6.10;99.90;;;;;;6312409;22;20014;-75
2022/01/06 11:28:11;;;;;;;8.30;0.40;;;6.20;99.90;;;;;;6339819;22;20017;-75
2022/01/06 11:30:43;;;;;;;4.65;0.22;;;6.40;99.90;;;;;;6340008;22;20009;-74
2022/01/06 11:33:09;;;;;;;7.55;0.38;;;6.50;99.90;;;;;;6340279;22;20114;-75
2022/01/06 11:35:47;;;;;;;7.75;0.65;;;6.70;99.90;;;;;;6312276;22;20003;-75
2022/01/06 11:38:15;;;;;;;6.82;0.30;;;6.70;99.90;;;;;;6312285;22;19999;-75
2022/01/06 11:40:41;;;;;;;10.35;0.63;;;6.70;99.90;;;;;;6340223;22;20015;-74
2022/01/06 11:43:07;;;;;;;1.58;0.00;;;6.50;99.90;;;;;;6339784;22;20044;-74
2022/01/06 11:45:33;;;;;;;6.18;0.80;;;6.40;99.90;;;;;;6339816;22;20059;-75
2022/01/06 11:48:05;;;;;;;3.92;0.68;;;6.40;99.90;;;;;;6339435;22;20003;-75
2022/01/06 11:50:36;;;;;;;5.45;0.60;;;6.40;99.90;;;;;;6339643;22;20009;-74
2022/01/06 11:53:04;;;;;;;4.07;0.00;;;6.50;99.90;;;;;;6312571;22;20003;-74
2022/01/06 11:55:39;;;;;;;9.73;0.65;;;6.50;99.90;;;;;;6339965;22;20003;-76
2022/01/06 11:58:12;;;;;;;8.77;0.45;;;6.50;99.90;;;;;;6340073;22;20010;-75
2022/01/06 12:00:41;;;;;;;4.20;0.10;;;6.60;99.90;;;;;;6339765;22;19995;-75
2022/01/06 12:03:10;;;;;;;9.27;0.55;;;6.60;99.90;;;;;;6311984;22;19995;-75
2022/01/06 12:05:51;;;;;;;6.82;0.30;;;7.10;99.90;;;;;;6339587;22;20356;-75
2022/01/06 12:08:19;;;;;;;9.43;0.90;;;6.70;99.90;;;;;;6339564;22;19999;-75
2022/01/06 12:10:50;;;;;;;6.85;0.82;;;6.90;99.90;;;;;;6339584;22;20002;-75
2022/01/06 12:13:17;;;;;;;8.43;0.30;;;7.00;99.90;;;;;;6340185;22;20007;-75
2022/01/06 12:15:50;;;;;;;5.28;0.50;;;7.20;99.90;;;;;;6339487;22;20330;-75
2022/01/06 12:18:28;;;;;;;5.53;0.75;;;7.20;99.90;;;;;;6339277;22;20006;-75
2022/01/06 12:20:56;;;;;;;4.93;0.40;;;7.30;99.90;;;;;;6339445;22;19999;-75
2022/01/06 12:23:23;;;;;;;6.80;1.17;;;7.40;99.90;;;;;;6339399;22;20303;-75
2022/01/06 12:26:01;;;;;;;19.42;5.68;;;7.40;99.90;;;;;;6311656;22;20003;-75
2022/01/06 12:28:28;;;;;;;7.30;0.75;;;7.50;99.90;;;;;;6339417;22;20007;-75
2022/01/06 12:31:02;;;;;;;7.93;0.17;;;7.40;99.90;;;;;;6311561;22;19995;-75
2022/01/06 12:33:31;;;;;;;3.92;0.03;;;7.40;99.90;;;;;;6339478;22;20003;-75
2022/01/06 12:35:57;;;;;;;5.10;0.60;;;7.40;99.90;;;;;;6313641;22;20485;-74
2022/01/06 12:38:30;;;;;;;11.93;0.32;;;7.20;99.90;;;;;;6340596;22;20005;-75
2022/01/06 12:40:56;;;;;;;13.73;2.75;;;7.10;99.90;;;;;;6339864;22;20335;-75
2022/01/06 12:43:23;;;;;;;18.95;8.38;;;7.10;99.90;;;;;;6341015;22;20087;-75
2022/01/06 12:46:11;;;;;;;18.73;7.88;;;6.90;99.90;;;;;;6313483;22;20018;-75
2022/01/06 12:48:39;;;;;;;17.48;5.32;;;6.90;99.90;;;;;;6313051;22;20005;-75
2022/01/06 12:51:06;;;;;;;7.00;0.73;;;6.80;99.90;;;;;;6312764;22;19999;-74
2022/01/06 12:53:37;;;;;;;7.15;0.57;;;6.80;99.90;;;;;;6340839;22;19995;-74
2022/01/06 12:56:04;;;;;;;7.32;1.65;;;6.80;99.90;;;;;;6339565;22;20080;-76
2022/01/06 12:58:37;;;;;;;15.30;3.72;;;6.80;99.90;;;;;;6311972;22;20010;-75
2022/01/06 13:01:10;;;;;;;7.15;0.73;;;6.80;99.90;;;;;;6339572;22;20418;-74